UUEELBBG

Guest
Details From UUEE - Moscou Sheremetyevo
To LBBG - Burgas
Flight Number -
Tags Generated
Created
Modified
Stats Distance 892 nm / 1,652 km
Max Altitude 0 ft / 0 m
Waypoints 5
Social Downloads 1
Likes 0
Share VATSIM

Download

Looking for another format? Having issues loading an existing format? Contact us
Advertisement - Login to hide

Notes

Generated

Route

UUEE KOKOR CK BGS LBBG

ID Type Via Altitude Latitude Longitude Leg Dist Tot Dist Heading (true) Name
O UUEE APT - 0 ft / 0 m 55.96979˚ 37.38673˚ - 0 nm - -
KOKOR FIX - 0 ft / 0 m 52.60333˚ 34.30000˚ 229 nm 229 nm 209° / 207° -
CK NDB - 0 ft / 0 m 49.45644˚ 31.95994˚ 208 nm 437 nm 206° / 204° CHERKASY NDB
BGS VOR - 0 ft / 0 m 42.57106˚ 27.51986˚ 452 nm 890 nm 206° / 203° BURGAS VOR-DME
O LBBG APT - 0 ft / 0 m 42.55983˚ 27.50160˚ 1 nm 891 nm 230° / 230° -

Altitude Profile

Advertisement - Login to hide

Weather


0- 5 10 15 20 25 30 35+ Temperature / ° C

Clouds and Precipitation
Forecast for 2018-05-22 18:00 UTC. Updated 3 hours ago

Ground ~20,000 ft ~40,000 ft Winds

UUEE

Details ICAO UUEE (SVO)
Name Moscou Sheremetyevo
Region Russia
Timezone Europe/Moscow (UTC+3.0)
Stats Elevation 622 ft / 190 m (AMSL)
Location 55.972642° 37.414586°
Runways 2
Magnetic Variation 11.221° E

METAR

UUEE 222000Z 15003MPS CAVOK 14/11 Q1024 R06C/CLRD62 R06R/CLRD62 NOSIG

Decode

TAF

TAF UUEE 221657Z 2218/2318 16003MPS 9999 SCT030 TX22/2312Z TN12/2302Z BECMG 2219/2221 VRB01MPS BECMG 2305/2307 26005MPS

Decode

Departure Runways

ID Width Length Bearing (true) Bearing (mag) Surface Threshold Offset Overrun Length
07L 197 ft / 60 m 11,613 ft / 3,540 m 74.99° 63.77° Concrete 0 ft / 0 m 240 ft / 73 m
07R 197 ft / 60 m 12,127 ft / 3,696 m 75.03° 63.81° Concrete 0 ft / 0 m 235 ft / 72 m
25L 197 ft / 60 m 12,127 ft / 3,696 m 255.08° 243.86° Concrete 0 ft / 0 m 245 ft / 75 m
25R 197 ft / 60 m 11,613 ft / 3,540 m 255.04° 243.82° Concrete 0 ft / 0 m 245 ft / 75 m

LBBG

Details ICAO LBBG (BOJ)
Name Burgas
Region Bulgaria
Timezone Europe/Sofia (UTC+3.0)
Stats Elevation 135 ft / 41 m (AMSL)
Location 42.570130° 27.515240°
Runways 1
Magnetic Variation 5.548° E

METAR

LBBG 222000Z 05006KT CAVOK 16/13 Q1021 NOSIG

Decode

TAF

TAF TAF LBBG 221700Z 2218/2318 04008KT CAVOK BECMG 2219/2221 SCT015 BKN020 TEMPO 2300/2305 3000 BR BKN010 BECMG 2307/2309 11012KT

Decode

Destination Runways

ID Width Length Bearing (true) Bearing (mag) Surface Threshold Offset Overrun Length
04 148 ft / 45 m 10,502 ft / 3,201 m 44.28° 38.73° Concrete 0 ft / 0 m 190 ft / 58 m
22 148 ft / 45 m 10,502 ft / 3,201 m 224.29° 218.74° Concrete 0 ft / 0 m 190 ft / 58 m

Approach Navaids

Runway Type Ident Frequency Range Bearing (true) Bearing (mag) Slope Elevation
22 Localiser IBG 110.30 MHz 18 nm / 33 km 224.26° 218.72° - 135 ft / 41 m (AMSL)
22 Glidescope IBG 110.30 MHz 10 nm / 19 km 224.28° 218.74° 3.00° 135 ft / 41 m (AMSL)

Popular Alternatives